createdAt,value
2024-01-24T00:05:27.821Z,8.55
2024-01-24T00:15:32.309Z,8.59
2024-01-24T00:25:35.031Z,8.67
2024-01-24T00:35:39.449Z,8.83
2024-01-24T00:45:42.238Z,8.90
2024-01-24T00:55:47.426Z,8.96
2024-01-24T01:05:50.701Z,9.07
2024-01-24T01:15:55.209Z,9.16
2024-01-24T01:25:57.980Z,9.20
2024-01-24T01:36:08.948Z,9.32
2024-01-24T01:46:21.000Z,9.36
2024-01-24T01:56:25.873Z,9.41
2024-01-24T02:06:30.093Z,9.43
2024-01-24T02:16:34.354Z,9.60
2024-01-24T02:26:38.707Z,9.61
2024-01-24T02:36:41.491Z,9.75
2024-01-24T02:46:45.496Z,9.88
2024-01-24T02:56:48.378Z,9.86
2024-01-24T03:06:52.795Z,9.88
2024-01-24T03:16:55.581Z,9.99
2024-01-24T03:26:59.705Z,10.01
2024-01-24T03:37:02.703Z,10.07
2024-01-24T03:47:07.267Z,10.02
2024-01-24T03:57:10.069Z,10.08
2024-01-24T04:07:14.156Z,10.15
2024-01-24T04:17:16.929Z,10.17
2024-01-24T04:27:20.885Z,10.28
2024-01-24T04:37:23.732Z,10.41
2024-01-24T04:47:27.990Z,10.39
2024-01-24T04:57:30.860Z,10.57
2024-01-24T05:07:35.647Z,10.66
2024-01-24T05:17:40.228Z,10.80
2024-01-24T05:27:44.490Z,10.76
2024-01-24T05:37:47.377Z,10.73
2024-01-24T05:47:51.595Z,10.81
2024-01-24T05:57:54.523Z,10.70
2024-01-24T06:07:58.703Z,10.68
2024-01-24T06:18:01.558Z,10.50
2024-01-24T06:28:06.388Z,10.41
2024-01-24T06:38:09.272Z,10.37
2024-01-24T06:48:13.707Z,10.35
2024-01-24T06:58:16.549Z,10.26
2024-01-24T07:08:20.745Z,10.19
2024-01-24T07:18:23.681Z,10.22
2024-01-24T07:28:30.292Z,10.11
2024-01-24T07:38:33.366Z,10.27
2024-01-24T07:48:37.706Z,10.38
2024-01-24T07:58:41.911Z,10.36
2024-01-24T08:08:46.349Z,10.36
2024-01-24T08:18:50.472Z,10.33
2024-01-24T08:28:54.721Z,10.55
2024-01-24T08:38:57.492Z,10.80
2024-01-24T08:49:04.083Z,10.67
2024-01-24T08:59:07.249Z,10.47
2024-01-24T09:09:15.240Z,10.36
2024-01-24T09:19:19.053Z,10.78
2024-01-24T09:29:23.517Z,10.81
2024-01-24T09:39:27.025Z,10.83
2024-01-24T09:49:33.129Z,11.11
2024-01-24T09:59:36.045Z,11.32
2024-01-24T10:09:40.178Z,10.62
2024-01-24T10:19:43.395Z,10.51
2024-01-24T10:29:47.712Z,10.92
2024-01-24T10:39:53.572Z,11.05
2024-01-24T10:50:02.227Z,11.69
2024-01-24T11:00:07.164Z,11.34
2024-01-24T11:10:17.918Z,11.70
2024-01-24T11:20:23.205Z,11.78
2024-01-24T11:30:40.569Z,11.69
2024-01-24T11:40:45.230Z,12.09
2024-01-24T11:50:55.846Z,11.29
2024-01-24T12:01:00.879Z,11.02
2024-01-24T12:11:05.885Z,12.12
2024-01-24T12:21:10.410Z,11.92
2024-01-24T12:31:15.086Z,11.88
2024-01-24T12:41:18.476Z,13.57
2024-01-24T12:51:23.161Z,12.16
2024-01-24T13:01:26.072Z,12.33
2024-01-24T13:11:30.420Z,12.10
2024-01-24T13:21:33.867Z,13.65
2024-01-24T13:31:38.025Z,13.58
2024-01-24T13:41:41.070Z,12.24
2024-01-24T13:51:45.821Z,11.58
2024-01-24T14:01:54.066Z,11.38
2024-01-24T14:12:04.048Z,11.29
2024-01-24T14:22:07.619Z,11.45
2024-01-24T14:32:12.109Z,11.93
2024-01-24T14:42:15.089Z,11.71
2024-01-24T14:52:19.313Z,11.01
2024-01-24T15:02:22.102Z,10.63
2024-01-24T15:12:28.558Z,10.43
2024-01-24T15:22:31.648Z,10.25
2024-01-24T15:32:35.874Z,10.09
2024-01-24T15:42:42.952Z,9.96
2024-01-24T15:52:48.415Z,9.79
2024-01-24T16:02:51.437Z,9.67
2024-01-24T16:12:59.478Z,9.57
2024-01-24T16:23:02.440Z,9.38
2024-01-24T16:33:06.811Z,9.21
2024-01-24T16:43:10.309Z,9.09
2024-01-24T16:53:14.788Z,9.09
2024-01-24T17:03:17.578Z,9.07
2024-01-24T17:13:22.904Z,9.05
2024-01-24T17:23:25.766Z,8.88
2024-01-24T17:33:30.247Z,8.69
2024-01-24T17:43:35.084Z,8.55
2024-01-24T17:53:39.869Z,8.46
2024-01-24T18:03:42.725Z,8.43
2024-01-24T18:13:46.912Z,8.42
2024-01-24T18:23:50.004Z,8.44
2024-01-24T18:33:56.377Z,8.37
2024-01-24T18:43:59.352Z,8.16
2024-01-24T18:54:03.798Z,8.20
2024-01-24T19:04:06.842Z,8.17
2024-01-24T19:14:11.252Z,8.17
2024-01-24T19:24:14.354Z,8.15
2024-01-24T19:34:18.403Z,8.18
2024-01-24T19:44:23.091Z,8.12
2024-01-24T19:54:27.977Z,8.06
2024-01-24T20:04:31.380Z,8.08
2024-01-24T20:14:36.824Z,7.92
2024-01-24T20:24:39.917Z,7.82
2024-01-24T20:34:44.194Z,7.65
2024-01-24T20:44:47.087Z,7.53
2024-01-24T20:54:53.305Z,7.50
2024-01-24T21:04:56.275Z,7.44
2024-01-24T21:15:06.190Z,7.52
2024-01-24T21:25:10.161Z,7.46
2024-01-24T21:35:14.469Z,7.47
2024-01-24T21:45:17.658Z,7.38
2024-01-24T21:55:21.664Z,7.33
2024-01-24T22:05:24.649Z,7.18
2024-01-24T22:15:28.992Z,7.16
2024-01-24T22:25:33.985Z,7.16
2024-01-24T22:35:43.204Z,7.29
2024-01-24T22:45:46.470Z,7.28
2024-01-24T22:55:50.682Z,7.17
2024-01-24T23:05:57.111Z,7.20
2024-01-24T23:16:01.500Z,7.29
2024-01-24T23:26:04.390Z,7.22
2024-01-24T23:36:09.500Z,7.18
2024-01-24T23:46:12.939Z,7.15
2024-01-24T23:56:17.100Z,7.16
